Latest Coastal Weather Observations for Low Head

IDT60701

Issued at 10:32 am EST Monday 16 September 2019 (issued every 10 minutes, with the page automatically refreshed every 10 minutes)

About coastal observations | Map of coastal stations | Coastal observations for TAS | Marine services | Other Formats
Station Details ID: 091293 Name: LOW HEAD Lat: -41.05 Lon: 146.79 Height: 3.0 m
Data from the previous 72 hours. | See also: Recent months at Low Head
Date/Time
EST
Wind Sea
Height
m
Swell Vis
km
Cloud Weather Temp
°C
Press
hPa
Rain since
9am
mm
Dir  Spd
kts
Gust
kts
Height
m
Period
s
Dir
16/10:30am SW 22 29 - - - - - - - 10.8 1015.7 0.0
16/10:00am SW 20 26 - - - - - - - 10.4 1015.3 0.0
16/09:30am SW 16 22 - - - - - - - 10.3 1015.1 0.0
16/09:00am WSW 19 24 - - - - - - - 9.8 1014.7 0.2
16/08:30am WSW 20 24 - - - - - - - 9.2 1013.9 0.2
16/08:00am WSW 23 26 - - - - - - - 8.9 1013.3 0.2
16/07:30am WSW 23 27 - - - - - - - 9.0 1012.9 0.2
16/07:00am W 24 28 - - - - - - - 9.1 1012.6 0.2
16/06:30am WSW 23 28 - - - - - - - 9.0 1012.1 0.2
16/06:00am W 28 33 - - - - - - - 9.1 1011.3 0.2
16/05:30am W 30 35 - - - - - - - 9.4 1010.6 0.2
16/05:00am W 28 33 - - - - - - - 9.9 1010.0 0.2
16/04:30am W 28 36 - - - - - - - 10.1 1009.3 0.2
16/04:00am W 31 38 - - - - - - - 10.3 1008.5 0.2
16/03:30am W 28 33 - - - - - - - 10.4 1008.2 0.2
16/03:00am W 28 35 - - - - - - - 10.3 1008.0 0.2
16/02:30am W 27 32 - - - - - - - 10.5 1008.2 0.2
16/02:00am W 26 32 - - - - - - - 10.4 1008.3 0.2
16/01:30am W 26 32 - - - - - - - 10.9 1008.5 0.2
16/01:00am WNW 24 30 - - - - - - - 10.6 1008.6 0.2
16/12:30am WNW 23 28 - - - - - - - 10.6 1008.5 0.2
16/12:00am WNW 26 30 - - - - - - - 10.7 1009.0 0.2
 
Date/Time
EST
Wind Sea
Height
m
Swell Vis
km
Cloud Weather Temp
°C
Press
hPa
Rain since
9am
mm
Dir  Spd
kts
Gust
kts
Height
m
Period
s
Dir
15/11:30pm W 23 27 - - - - - - - 10.9 1009.1 0.2
15/11:00pm W 24 29 - - - - - - - 10.7 1009.0 0.2
15/10:30pm W 22 25 - - - - - - - 11.0 1009.1 0.2
15/10:00pm W 22 26 - - - - - - - 11.0 1008.9 0.2
15/09:30pm W 24 29 - - - - - - - 11.2 1009.0 0.2
15/09:00pm W 23 27 - - - - - - - 11.4 1009.1 0.2
15/08:30pm WNW 24 27 - - - - - - - 11.6 1009.5 0.2
15/08:00pm WNW 21 25 - - - - - - - 11.7 1009.4 0.2
15/07:30pm WNW 20 23 - - - - - - - 11.8 1009.6 0.2
15/07:00pm WNW 20 24 - - - - - - - 11.8 1009.2 0.2
15/06:30pm NW 19 23 - - - - - - - 11.8 1009.5 0.2
15/06:00pm WNW 17 20 - - - - - - - 11.9 1009.1 0.2
15/05:30pm WNW 19 21 - - - - - - - 12.1 1009.0 0.2
15/05:00pm WNW 17 19 - - - - - - - 12.3 1008.7 0.2
15/04:30pm WNW 18 21 - - - - - - - 12.5 1008.8 0.2
15/04:00pm WNW 19 23 - - - - - - - 12.5 1009.0 0.2
15/03:30pm WNW 20 25 - - - - - - - 12.6 1009.3 0.2
15/03:00pm NW 21 25 - - - - - - - 12.8 1009.8 0.2
15/02:30pm NW 21 24 - - - - - - - 12.7 1010.0 0.2
15/02:00pm NW 21 25 - - - - - - - 12.9 1010.1 0.2
15/01:30pm NW 19 24 - - - - - - - 13.6 1010.2 0.2
15/01:00pm NW 17 21 - - - - - - - 14.0 1010.3 0.2
15/12:30pm NW 18 21 - - - - - - - 13.3 1010.4 0.0
15/12:00pm NW 20 23 - - - - - - - 13.8 1011.2 0.0
15/11:30am WNW 20 23 - - - - - - - 13.8 1011.5 0.0
15/11:00am WNW 20 23 - - - - - - - 13.6 1011.9 0.0
15/10:30am NW 19 22 - - - - - - - 13.3 1011.7 0.0
15/10:00am WNW 19 22 - - - - - - - 13.6 1011.9 0.0
15/09:30am WNW 19 23 - - - - - - - 13.3 1012.0 0.0
15/09:00am NW 21 24 - - - - - - - 13.1 1012.1 0.4
15/08:30am WNW 19 22 - - - - - - - 12.8 1012.2 0.4
15/08:00am WNW 19 22 - - - - - - - 12.6 1012.1 0.4
15/07:30am WNW 19 22 - - - - - - - 12.4 1011.8 0.4
15/07:00am WNW 23 28 - - - - - - - 12.3 1011.5 0.4
15/06:30am WNW 24 28 - - - - - - - 12.1 1011.4 0.4
15/06:00am WNW 25 31 - - - - - - - 12.1 1011.4 0.4
15/05:30am WNW 23 28 - - - - - - - 12.2 1011.3 0.4
15/05:00am WNW 22 27 - - - - - - - 12.2 1011.2 0.4
15/04:30am WNW 22 27 - - - - - - - 12.2 1011.6 0.4
15/04:00am WNW 21 25 - - - - - - - 12.2 1011.5 0.4
15/03:30am WNW 20 24 - - - - - - - 12.3 1012.0 0.4
15/03:00am WNW 16 19 - - - - - - - 12.2 1012.3 0.4
15/02:30am WNW 10 12 - - - - - - - 11.9 1012.9 0.4
15/02:00am NW 11 14 - - - - - - - 11.7 1013.3 0.4
15/01:30am NW 13 15 - - - - - - - 11.6 1013.9 0.4
15/01:00am NW 15 17 - - - - - - - 11.5 1014.8 0.4
15/12:30am WNW 13 16 - - - - - - - 11.5 1015.2 0.4
15/12:00am WNW 15 17 - - - - - - - 11.4 1015.6 0.4
 
Date/Time
EST
Wind Sea
Height
m
Swell Vis
km
Cloud Weather Temp
°C
Press
hPa
Rain since
9am
mm
Dir  Spd
kts
Gust
kts
Height
m
Period
s
Dir
14/11:30pm WNW 15 19 - - - - - - - 11.4 1016.3 0.4
14/11:00pm WNW 15 18 - - - - - - - 11.2 1016.3 0.4
14/10:30pm WNW 18 21 - - - - - - - 10.8 1016.7 0.4
14/10:00pm WNW 15 18 - - - - - - - 11.3 1017.6 0.4
14/09:30pm WNW 18 21 - - - - - - - 11.3 1018.3 0.0
14/09:00pm WNW 18 22 - - - - - - - 11.4 1018.6 0.0
14/08:30pm NW 17 19 - - - - - - - 11.4 1018.5 0.0
14/08:00pm NW 17 21 - - - - - - - 11.3 1018.4 0.0
14/07:30pm NW 21 26 - - - - - - - 11.2 1018.1 0.0
14/07:00pm NW 21 26 - - - - - - - 11.4 1018.0 0.0
14/06:30pm WNW 23 27 - - - - - - - 11.4 1018.3 0.0
14/06:00pm WNW 20 23 - - - - - - - 11.4 1018.5 0.0
14/05:30pm WNW 23 27 - - - - - - - 11.6 1018.7 0.0
14/05:00pm WNW 23 27 - - - - - - - 12.1 1018.3 0.0
14/04:30pm WNW 22 27 - - - - - - - 12.3 1018.5 0.0
14/04:00pm NW 21 24 - - - - - - - 12.6 1018.3 0.0
14/03:30pm WNW 23 27 - - - - - - - 13.0 1018.5 0.0
14/03:00pm WNW 20 25 - - - - - - - 13.3 1019.0 0.0
14/02:30pm WNW 21 25 - - - - - - - 13.3 1019.4 0.0
14/02:00pm NW 20 24 - - - - - - - 13.5 1019.6 0.0
14/01:30pm WNW 22 25 - - - - - - - 13.4 1019.8 0.0
14/01:00pm WNW 21 25 - - - - - - - 13.4 1019.9 0.0
14/12:30pm WNW 20 23 - - - - - - - 13.2 1020.1 0.0
14/12:00pm WNW 17 21 - - - - - - - 13.3 1020.5 0.0
14/11:30am WNW 19 23 - - - - - - - 13.0 1020.7 0.0
14/11:00am WNW 19 22 - - - - - - - 12.7 1020.7 0.0
14/10:30am WNW 18 22 - - - - - - - 12.5 1020.8 0.0
14/10:00am W 16 18 - - - - - - - 12.1 1020.7 0.0
14/09:30am W 20 22 - - - - - - - 11.7 1020.5 0.0
14/09:00am WNW 15 17 - - - - - - - 12.2 1020.8 0.2
14/08:30am W 17 20 - - - - - - - 11.6 1020.4 0.2
14/08:00am W 20 23 - - - - - - - 11.4 1020.0 0.2
14/07:30am W 21 24 - - - - - - - 11.3 1019.5 0.2
14/07:00am WNW 18 20 - - - - - - - 11.1 1019.6 0.2
14/06:30am W 15 21 - - - - - - - 11.1 1019.4 0.2
14/06:00am WSW 11 14 - - - - - - - 10.5 1018.8 0.2
14/05:30am W 9 11 - - - - - - - 10.6 1018.8 0.2
14/05:00am WSW 19 23 - - - - - - - 10.9 1018.1 0.2
14/04:30am WSW 13 16 - - - - - - - 11.0 1018.1 0.2
14/04:00am W 16 19 - - - - - - - 11.1 1017.9 0.2
14/03:30am WNW 17 20 - - - - - - - 10.8 1017.8 0.2
14/03:00am WNW 17 20 - - - - - - - 10.7 1017.8 0.2
14/02:30am WNW 16 19 - - - - - - - 10.7 1018.0 0.2
14/02:00am WNW 17 19 - - - - - - - 10.9 1018.1 0.2
14/01:30am W 6 15 - - - - - - - 10.6 1018.1 0.2
14/01:00am SW 8 13 - - - - - - - 10.4 1018.0 0.2
14/12:30am W 15 23 - - - - - - - 10.9 1017.4 0.2
14/12:00am WSW 23 27 - - - - - - - 11.0 1016.9 0.0
 
Date/Time
EST
Wind Sea
Height
m
Swell Vis
km
Cloud Weather Temp
°C
Press
hPa
Rain since
9am
mm
Dir  Spd
kts
Gust
kts
Height
m
Period
s
Dir
13/11:30pm WSW 23 28 - - - - - - - 11.1 1016.6 0.0
13/11:00pm W 25 30 - - - - - - - 11.4 1016.6 0.0
13/10:30pm W 26 32 - - - - - - - 11.5 1016.4 0.0
13/10:00pm W 25 29 - - - - - - - 11.6 1016.1 0.0
13/09:30pm WSW 25 31 - - - - - - - 11.8 1015.6 0.0
13/09:00pm W 27 31 - - - - - - - 12.0 1015.2 0.0
13/08:30pm W 25 31 - - - - - - - 12.2 1014.7 0.0
13/08:00pm W 24 29 - - - - - - - 12.2 1014.2 0.0
13/07:30pm W 25 29 - - - - - - - 12.5 1013.7 0.0
13/07:00pm W 25 29 - - - - - - - 12.2 1013.1 0.0
13/06:30pm WNW 28 34 - - - - - - - 11.9 1012.9 0.0
13/06:00pm WNW 29 36 - - - - - - - 11.7 1013.0 0.0
13/05:30pm WNW 27 32 - - - - - - - 11.4 1013.2 0.0
13/05:00pm WNW 26 32 - - - - - - - 11.6 1013.7 0.0
13/04:30pm WNW 26 33 - - - - - - - 11.5 1014.1 0.0
13/04:00pm WNW 26 33 - - - - - - - 11.4 1014.3 0.0
13/03:30pm WNW 22 28 - - - - - - - 11.4 1014.8 0.0
13/03:00pm WNW 25 31 - - - - - - - 11.2 1015.5 0.0
13/02:30pm WNW 24 29 - - - - - - - 11.8 1015.6 0.0
13/02:00pm WNW 23 28 - - - - - - - 12.0 1015.6 0.0
13/01:30pm WNW 21 26 - - - - - - - 11.7 1015.8 0.0
13/01:00pm WNW 24 27 - - - - - - - 11.4 1016.7 0.0
13/12:30pm WNW 22 26 - - - - - - - 11.9 1017.9 0.0
13/12:00pm WNW 23 28 - - - - - - - 11.5 1018.5 0.0
13/11:30am WNW 25 28 - - - - - - - 11.2 1018.8 0.0
13/11:00am WNW 24 29 - - - - - - - 11.4 1018.8 0.0

Other formats

Comma delimited format used in spreadsheet applications
http://www.bom.gov.au/fwo/IDT60701/IDT60701.95964.axf

JavaScript Object Notation format (JSON) in row-major order
http://www.bom.gov.au/fwo/IDT60701/IDT60701.95964.json

Data quality

Most of these data are generated automatically and are frequently updated. Quality checks on data are not normally performed. It is possible for incorrect values to appear. Refer to information at About Latest Weather Observations and please check the disclaimer before using these data.